PWSweather.com
Personal Weather Stations
Station Observations
RHPWSHOR1
Lostock, BoltonGB

LostockBoltonGB

Lat: 53.58073044, Lon: -2.52344131

Elevation: 389

Station Type: Oregon Scientific WMR100

Latest ConditionsUpdated 7:48:18 AM GMT Sunday, Dec 11, 2016
Currently Today's Max Today's Min Today's Average
Temperature 48.6°F9.2°C 48.9°F9.4°C 47.1°F8.4°C 48.0°F8.9°C
Dew Point 45.8°F7.7°C 46.7°F8.2°C 44.8°F7.1°C 45.9°F7.7°C
Winds 3.4 mph WSW5.5 kmh WSW 8.7 mph WSW14.0 kmh WSW - 4.0 mph 6.4 kmh
Wind Gusts 3.4 mph5.5 kmh 8.7 mph14.0 kmh - -
Humidity 90% 95% 90% 93%
Pressure 29.56 in1001.0 mb 29.56 in1001.0 mb 29.50 in999.0 mb -
Hour Temp Dew Point Humidity Winds Wind Gusts Pressure Precip Precip Rate Daily Precip Total
07:48 AM 48.6°F9.2°C 45.8°F7.7°C 90% 3.4 mph WSW5.5 kmh WSW 3.4 mph5.5 kmh 29.56 in1001.0 mb 0.00 in0.0 mm 0.00 in0.0 mm 0.00 in0.0 mm
07:41 AM 48.6°F9.2°C 45.8°F7.7°C 90% 4.9 mph WNW7.9 kmh WNW 4.9 mph7.9 kmh 29.56 in1001.0 mb 0.00 in0.0 mm 0.00 in0.0 mm 0.00 in0.0 mm
07:34 AM 48.6°F9.2°C 45.8°F7.7°C 90% 3.4 mph NNW5.5 kmh NNW 3.4 mph5.5 kmh 29.56 in1001.0 mb 0.00 in0.0 mm 0.00 in0.0 mm 0.00 in0.0 mm
07:26 AM 48.6°F9.2°C 45.8°F7.7°C 90% 3.6 mph W5.8 kmh W 4.9 mph7.9 kmh 29.56 in1001.0 mb 0.00 in0.0 mm 0.00 in0.0 mm 0.00 in0.0 mm
07:20 AM 48.6°F9.2°C 45.8°F7.7°C 90% 6.3 mph SSW10.1 kmh SSW 6.3 mph10.1 kmh 29.53 in1000.0 mb 0.00 in0.0 mm 0.00 in0.0 mm 0.00 in0.0 mm
07:13 AM 48.6°F9.2°C 45.8°F7.7°C 90% 4.3 mph WSW6.9 kmh WSW 5.6 mph9.0 kmh 29.53 in1000.0 mb 0.00 in0.0 mm 0.00 in0.0 mm 0.00 in0.0 mm
07:06 AM 48.6°F9.2°C 45.8°F7.7°C 90% 5.8 mph SSW9.3 kmh SSW 5.8 mph9.3 kmh 29.53 in1000.0 mb 0.00 in0.0 mm 0.00 in0.0 mm 0.00 in0.0 mm
06:59 AM 48.6°F9.2°C 45.8°F7.7°C 90% 3.6 mph WSW5.8 kmh WSW 3.6 mph5.8 kmh 29.53 in1000.0 mb 0.00 in0.0 mm 0.00 in0.0 mm 0.00 in0.0 mm
06:52 AM 48.7°F9.3°C 45.9°F7.7°C 90% 2.9 mph S4.7 kmh S 4.0 mph6.4 kmh 29.53 in1000.0 mb 0.00 in0.0 mm 0.00 in0.0 mm 0.00 in0.0 mm
06:45 AM 48.7°F9.3°C 45.9°F7.7°C 90% 5.4 mph SSW8.7 kmh SSW 5.4 mph8.7 kmh 29.53 in1000.0 mb 0.00 in0.0 mm 0.00 in0.0 mm 0.00 in0.0 mm
06:38 AM 48.7°F9.3°C 46.2°F7.9°C 91% 3.6 mph SSE5.8 kmh SSE 3.6 mph5.8 kmh 29.53 in1000.0 mb 0.00 in0.0 mm 0.00 in0.0 mm 0.00 in0.0 mm
06:31 AM 48.7°F9.3°C 46.2°F7.9°C 91% 8.1 mph SW13.0 kmh SW 8.1 mph13.0 kmh 29.53 in1000.0 mb 0.00 in0.0 mm 0.00 in0.0 mm 0.00 in0.0 mm
06:24 AM 48.9°F9.4°C 46.4°F8.0°C 91% 6.3 mph SSE10.1 kmh SSE 6.3 mph10.1 kmh 29.53 in1000.0 mb 0.00 in0.0 mm 0.00 in0.0 mm 0.00 in0.0 mm
06:17 AM 48.7°F9.3°C 46.2°F7.9°C 91% 4.3 mph SSW6.9 kmh SSW 5.4 mph8.7 kmh 29.53 in1000.0 mb 0.00 in0.0 mm 0.00 in0.0 mm 0.00 in0.0 mm
06:10 AM 48.7°F9.3°C 46.2°F7.9°C 91% 3.4 mph W5.5 kmh W 3.8 mph6.1 kmh 29.53 in1000.0 mb 0.00 in0.0 mm 0.00 in0.0 mm 0.00 in0.0 mm
06:03 AM 48.6°F9.2°C 46.1°F7.8°C 91% 3.6 mph WSW5.8 kmh WSW 4.0 mph6.4 kmh 29.53 in1000.0 mb 0.00 in0.0 mm 0.00 in0.0 mm 0.00 in0.0 mm
05:56 AM 48.6°F9.2°C 46.1°F7.8°C 91% 5.4 mph WSW8.7 kmh WSW 5.4 mph8.7 kmh 29.53 in1000.0 mb 0.00 in0.0 mm 0.00 in0.0 mm 0.00 in0.0 mm
05:49 AM 48.6°F9.2°C 46.1°F7.8°C 91% 1.3 mph S2.1 kmh S 3.1 mph5.0 kmh 29.53 in1000.0 mb 0.00 in0.0 mm 0.00 in0.0 mm 0.00 in0.0 mm
05:42 AM 48.4°F9.1°C 45.9°F7.7°C 91% 2.9 mph SSW4.7 kmh SSW 5.6 mph9.0 kmh 29.53 in1000.0 mb 0.00 in0.0 mm 0.00 in0.0 mm 0.00 in0.0 mm
05:35 AM 48.4°F9.1°C 45.9°F7.7°C 91% 6.0 mph SW9.7 kmh SW 7.8 mph12.6 kmh 29.53 in1000.0 mb 0.00 in0.0 mm 0.00 in0.0 mm 0.00 in0.0 mm
05:28 AM 48.2°F9.0°C 45.7°F7.6°C 91% 2.9 mph W4.7 kmh W 5.4 mph8.7 kmh 29.53 in1000.0 mb 0.00 in0.0 mm 0.00 in0.0 mm 0.00 in0.0 mm
05:21 AM 48.2°F9.0°C 45.7°F7.6°C 91% 3.4 mph SSE5.5 kmh SSE 3.8 mph6.1 kmh 29.53 in1000.0 mb 0.00 in0.0 mm 0.00 in0.0 mm 0.00 in0.0 mm
05:14 AM 48.2°F9.0°C 46.0°F7.8°C 92% 2.7 mph SSE4.3 kmh SSE 2.7 mph4.3 kmh 29.53 in1000.0 mb 0.00 in0.0 mm 0.00 in0.0 mm 0.00 in0.0 mm
05:07 AM 48.0°F8.9°C 45.8°F7.7°C 92% 8.7 mph WSW14.0 kmh WSW 8.7 mph14.0 kmh 29.53 in1000.0 mb 0.00 in0.0 mm 0.00 in0.0 mm 0.00 in0.0 mm
04:59 AM 47.8°F8.8°C 45.6°F7.6°C 92% 3.4 mph S5.5 kmh S 4.3 mph6.9 kmh 29.53 in1000.0 mb 0.00 in0.0 mm 0.00 in0.0 mm 0.00 in0.0 mm
04:53 AM 47.7°F8.7°C 45.5°F7.5°C 92% 3.1 mph SSW5.0 kmh SSW 3.1 mph5.0 kmh 29.53 in1000.0 mb 0.00 in0.0 mm 0.00 in0.0 mm 0.00 in0.0 mm
04:46 AM 47.7°F8.7°C 45.5°F7.5°C 92% 5.8 mph SSE9.3 kmh SSE 5.8 mph9.3 kmh 29.53 in1000.0 mb 0.00 in0.0 mm 0.00 in0.0 mm 0.00 in0.0 mm
04:39 AM 47.5°F8.6°C 45.3°F7.4°C 92% 4.9 mph SSE7.9 kmh SSE 4.9 mph7.9 kmh 29.53 in1000.0 mb 0.00 in0.0 mm 0.00 in0.0 mm 0.00 in0.0 mm
04:32 AM 47.5°F8.6°C 45.3°F7.4°C 92% 4.9 mph S7.9 kmh S 4.9 mph7.9 kmh 29.53 in1000.0 mb 0.00 in0.0 mm 0.00 in0.0 mm 0.00 in0.0 mm
04:25 AM 47.3°F8.5°C 45.1°F7.3°C 92% 3.1 mph S5.0 kmh S 6.0 mph9.7 kmh 29.53 in1000.0 mb 0.00 in0.0 mm 0.00 in0.0 mm 0.00 in0.0 mm
04:18 AM 47.3°F8.5°C 45.1°F7.3°C 92% 5.4 mph S8.7 kmh S 5.4 mph8.7 kmh 29.53 in1000.0 mb 0.00 in0.0 mm 0.00 in0.0 mm 0.00 in0.0 mm
04:10 AM 47.3°F8.5°C 44.8°F7.1°C 91% 4.0 mph S6.4 kmh S 4.0 mph6.4 kmh 29.53 in1000.0 mb 0.00 in0.0 mm 0.00 in0.0 mm 0.00 in0.0 mm
04:04 AM 47.3°F8.5°C 44.8°F7.1°C 91% 2.9 mph WNW4.7 kmh WNW 2.9 mph4.7 kmh 29.53 in1000.0 mb 0.00 in0.0 mm 0.00 in0.0 mm 0.00 in0.0 mm
03:57 AM 47.3°F8.5°C 45.1°F7.3°C 92% 3.1 mph SSW5.0 kmh SSW 3.1 mph5.0 kmh 29.53 in1000.0 mb 0.00 in0.0 mm 0.00 in0.0 mm 0.00 in0.0 mm
03:50 AM 47.3°F8.5°C 45.1°F7.3°C 92% 3.8 mph WSW6.1 kmh WSW 4.0 mph6.4 kmh 29.53 in1000.0 mb 0.00 in0.0 mm 0.00 in0.0 mm 0.00 in0.0 mm
03:43 AM 47.3°F8.5°C 45.1°F7.3°C 92% 7.4 mph S11.9 kmh S 7.4 mph11.9 kmh 29.53 in1000.0 mb 0.00 in0.0 mm 0.00 in0.0 mm 0.00 in0.0 mm
03:36 AM 47.5°F8.6°C 45.3°F7.4°C 92% 4.9 mph SSW7.9 kmh SSW 4.9 mph7.9 kmh 29.53 in1000.0 mb 0.00 in0.0 mm 0.00 in0.0 mm 0.00 in0.0 mm
03:29 AM 47.5°F8.6°C 45.3°F7.4°C 92% 4.7 mph NNW7.6 kmh NNW 4.7 mph7.6 kmh 29.53 in1000.0 mb 0.00 in0.0 mm 0.00 in0.0 mm 0.00 in0.0 mm
03:22 AM 47.5°F8.6°C 45.3°F7.4°C 92% 2.7 mph ESE4.3 kmh ESE 2.7 mph4.3 kmh 29.50 in999.0 mb 0.00 in0.0 mm 0.00 in0.0 mm 0.00 in0.0 mm
03:15 AM 47.7°F8.7°C 45.7°F7.6°C 93% 7.2 mph S11.6 kmh S 8.1 mph13.0 kmh 29.50 in999.0 mb 0.00 in0.0 mm 0.00 in0.0 mm 0.00 in0.0 mm
03:08 AM 47.7°F8.7°C 45.7°F7.6°C 93% 7.2 mph SSW11.6 kmh SSW 7.2 mph11.6 kmh 29.53 in1000.0 mb 0.00 in0.0 mm 0.00 in0.0 mm 0.00 in0.0 mm
03:01 AM 47.8°F8.8°C 45.9°F7.7°C 93% 2.9 mph SSE4.7 kmh SSE 3.1 mph5.0 kmh 29.53 in1000.0 mb 0.00 in0.0 mm 0.00 in0.0 mm 0.00 in0.0 mm
02:54 AM 48.2°F9.0°C 46.6°F8.1°C 94% 3.6 mph WSW5.8 kmh WSW 3.6 mph5.8 kmh 29.53 in1000.0 mb 0.00 in0.0 mm 0.00 in0.0 mm 0.00 in0.0 mm
02:47 AM 48.2°F9.0°C 46.6°F8.1°C 94% 2.9 mph SSW4.7 kmh SSW 2.9 mph4.7 kmh 29.53 in1000.0 mb 0.00 in0.0 mm 0.00 in0.0 mm 0.00 in0.0 mm
02:40 AM 48.2°F9.0°C 46.6°F8.1°C 94% 2.0 mph S3.2 kmh S 2.0 mph3.2 kmh 29.53 in1000.0 mb 0.00 in0.0 mm 0.00 in0.0 mm 0.00 in0.0 mm
02:33 AM 48.2°F9.0°C 46.6°F8.1°C 94% 3.1 mph SW5.0 kmh SW 3.1 mph5.0 kmh 29.53 in1000.0 mb 0.00 in0.0 mm 0.00 in0.0 mm 0.00 in0.0 mm
02:26 AM 48.0°F8.9°C 46.4°F8.0°C 94% 2.5 mph SSW4.0 kmh SSW 2.5 mph4.0 kmh 29.53 in1000.0 mb 0.00 in0.0 mm 0.00 in0.0 mm 0.00 in0.0 mm
02:19 AM 48.0°F8.9°C 46.7°F8.2°C 95% 2.0 mph WSW3.2 kmh WSW 3.1 mph5.0 kmh 29.53 in1000.0 mb 0.00 in0.0 mm 0.00 in0.0 mm 0.00 in0.0 mm
02:12 AM 48.0°F8.9°C 46.7°F8.2°C 95% 6.3 mph WNW10.1 kmh WNW 6.3 mph10.1 kmh 29.53 in1000.0 mb 0.00 in0.0 mm 0.00 in0.0 mm 0.00 in0.0 mm
02:04 AM 48.0°F8.9°C 46.7°F8.2°C 95% 2.7 mph WSW4.3 kmh WSW 2.7 mph4.3 kmh 29.53 in1000.0 mb 0.00 in0.0 mm 0.00 in0.0 mm 0.00 in0.0 mm
01:58 AM 48.0°F8.9°C 46.7°F8.2°C 95% 4.7 mph NNW7.6 kmh NNW 4.7 mph7.6 kmh 29.53 in1000.0 mb 0.00 in0.0 mm 0.00 in0.0 mm 0.00 in0.0 mm
01:51 AM 47.8°F8.8°C 46.5°F8.1°C 95% 3.6 mph SSW5.8 kmh SSW 6.3 mph10.1 kmh 29.53 in1000.0 mb 0.00 in0.0 mm 0.00 in0.0 mm 0.00 in0.0 mm
01:44 AM 47.8°F8.8°C 46.5°F8.1°C 95% 3.6 mph SSW5.8 kmh SSW 3.6 mph5.8 kmh 29.53 in1000.0 mb 0.00 in0.0 mm 0.00 in0.0 mm 0.00 in0.0 mm
01:37 AM 47.8°F8.8°C 46.5°F8.1°C 95% 2.9 mph WSW4.7 kmh WSW 2.9 mph4.7 kmh 29.53 in1000.0 mb 0.00 in0.0 mm 0.00 in0.0 mm 0.00 in0.0 mm
01:30 AM 47.8°F8.8°C 46.5°F8.1°C 95% 2.7 mph WSW4.3 kmh WSW 5.4 mph8.7 kmh 29.53 in1000.0 mb 0.00 in0.0 mm 0.00 in0.0 mm 0.00 in0.0 mm
01:23 AM 47.8°F8.8°C 46.5°F8.1°C 95% 4.0 mph WSW6.4 kmh WSW 4.3 mph6.9 kmh 29.53 in1000.0 mb 0.00 in0.0 mm 0.00 in0.0 mm 0.00 in0.0 mm
01:16 AM 47.7°F8.7°C 46.3°F7.9°C 95% 2.5 mph WNW4.0 kmh WNW 3.4 mph5.5 kmh 29.53 in1000.0 mb 0.00 in0.0 mm 0.00 in0.0 mm 0.00 in0.0 mm
01:09 AM 47.5°F8.6°C 46.1°F7.8°C 95% 4.0 mph SSE6.4 kmh SSE 4.0 mph6.4 kmh 29.50 in999.0 mb 0.00 in0.0 mm 0.00 in0.0 mm 0.00 in0.0 mm
01:02 AM 47.3°F8.5°C 45.7°F7.6°C 94% 3.1 mph W5.0 kmh W 4.0 mph6.4 kmh 29.50 in999.0 mb 0.00 in0.0 mm 0.00 in0.0 mm 0.00 in0.0 mm
12:55 AM 47.1°F8.4°C 45.5°F7.5°C 94% 2.9 mph SSW4.7 kmh SSW 2.9 mph4.7 kmh 29.50 in999.0 mb 0.00 in0.0 mm 0.00 in0.0 mm 0.00 in0.0 mm
12:48 AM 47.3°F8.5°C 45.7°F7.6°C 94% 2.5 mph SE4.0 kmh SE 3.1 mph5.0 kmh 29.50 in999.0 mb 0.00 in0.0 mm 0.00 in0.0 mm 0.00 in0.0 mm
12:41 AM 47.3°F8.5°C 45.7°F7.6°C 94% 3.4 mph NNW5.5 kmh NNW 3.4 mph5.5 kmh 29.50 in999.0 mb 0.00 in0.0 mm 0.00 in0.0 mm 0.00 in0.0 mm
12:34 AM 47.5°F8.6°C 46.1°F7.8°C 95% 2.5 mph SSE4.0 kmh SSE 2.5 mph4.0 kmh 29.50 in999.0 mb 0.00 in0.0 mm 0.00 in0.0 mm 0.00 in0.0 mm
12:27 AM 47.7°F8.7°C 46.3°F7.9°C 95% 4.9 mph SSW7.9 kmh SSW 4.9 mph7.9 kmh 29.50 in999.0 mb 0.00 in0.0 mm 0.00 in0.0 mm 0.00 in0.0 mm
12:20 AM 47.5°F8.6°C 46.1°F7.8°C 95% 2.7 mph W4.3 kmh W 3.4 mph5.5 kmh 29.50 in999.0 mb 0.00 in0.0 mm 0.00 in0.0 mm 0.00 in0.0 mm
12:13 AM 47.7°F8.7°C 46.3°F7.9°C 95% 2.9 mph SSW4.7 kmh SSW 3.1 mph5.0 kmh 29.50 in999.0 mb 0.00 in0.0 mm 0.00 in0.0 mm 0.00 in0.0 mm
12:06 AM 47.7°F8.7°C 46.3°F7.9°C 95% 3.1 mph NNE5.0 kmh NNE 3.1 mph5.0 kmh 29.50 in999.0 mb 0.00 in0.0 mm 0.00 in0.0 mm 0.00 in0.0 mm